sensor_id;sensor_type;location;lat;lon;timestamp;P1;durP1;ratioP1;P2;durP2;ratioP2
12900;SDS011;6518;50.930;5.344;2022-07-06T00:02:01;3.28;;;2.42;;
12900;SDS011;6518;50.930;5.344;2022-07-06T00:04:29;6.10;;;2.58;;
12900;SDS011;6518;50.930;5.344;2022-07-06T00:06:56;4.22;;;2.65;;
12900;SDS011;6518;50.930;5.344;2022-07-06T00:09:23;5.38;;;2.60;;
12900;SDS011;6518;50.930;5.344;2022-07-06T00:11:50;4.93;;;2.55;;
12900;SDS011;6518;50.930;5.344;2022-07-06T00:14:18;4.68;;;2.70;;
12900;SDS011;6518;50.930;5.344;2022-07-06T00:16:44;6.25;;;2.90;;
12900;SDS011;6518;50.930;5.344;2022-07-06T00:19:11;7.57;;;2.75;;
12900;SDS011;6518;50.930;5.344;2022-07-06T00:21:40;5.68;;;3.03;;
12900;SDS011;6518;50.930;5.344;2022-07-06T00:24:07;4.45;;;2.72;;
12900;SDS011;6518;50.930;5.344;2022-07-06T00:26:34;4.53;;;2.70;;
12900;SDS011;6518;50.930;5.344;2022-07-06T00:29:01;7.32;;;2.95;;
12900;SDS011;6518;50.930;5.344;2022-07-06T00:31:28;6.20;;;2.78;;
12900;SDS011;6518;50.930;5.344;2022-07-06T00:33:55;3.78;;;2.35;;
12900;SDS011;6518;50.930;5.344;2022-07-06T00:36:22;5.38;;;2.30;;
12900;SDS011;6518;50.930;5.344;2022-07-06T00:38:51;4.90;;;2.50;;
12900;SDS011;6518;50.930;5.344;2022-07-06T00:41:18;7.63;;;2.92;;
12900;SDS011;6518;50.930;5.344;2022-07-06T00:43:49;4.72;;;3.00;;
12900;SDS011;6518;50.930;5.344;2022-07-06T00:46:18;6.40;;;2.75;;
12900;SDS011;6518;50.930;5.344;2022-07-06T00:48:45;4.60;;;2.55;;
12900;SDS011;6518;50.930;5.344;2022-07-06T00:51:12;4.85;;;2.83;;
12900;SDS011;6518;50.930;5.344;2022-07-06T00:53:41;4.63;;;2.72;;
12900;SDS011;6518;50.930;5.344;2022-07-06T00:56:10;3.65;;;2.65;;
12900;SDS011;6518;50.930;5.344;2022-07-06T00:58:37;4.50;;;2.85;;
12900;SDS011;6518;50.930;5.344;2022-07-06T01:01:05;4.93;;;2.60;;
12900;SDS011;6518;50.930;5.344;2022-07-06T01:03:32;5.88;;;3.03;;
12900;SDS011;6518;50.930;5.344;2022-07-06T01:05:59;6.05;;;2.90;;
12900;SDS011;6518;50.930;5.344;2022-07-06T01:08:26;8.88;;;3.00;;
12900;SDS011;6518;50.930;5.344;2022-07-06T01:10:54;4.03;;;2.80;;
12900;SDS011;6518;50.930;5.344;2022-07-06T01:13:23;5.13;;;3.00;;
12900;SDS011;6518;50.930;5.344;2022-07-06T01:15:51;4.05;;;3.13;;
12900;SDS011;6518;50.930;5.344;2022-07-06T01:18:18;5.32;;;3.00;;
12900;SDS011;6518;50.930;5.344;2022-07-06T01:20:46;7.55;;;3.45;;
12900;SDS011;6518;50.930;5.344;2022-07-06T01:23:13;5.47;;;3.00;;
12900;SDS011;6518;50.930;5.344;2022-07-06T01:25:40;5.70;;;3.00;;
12900;SDS011;6518;50.930;5.344;2022-07-06T01:28:07;5.63;;;3.20;;
12900;SDS011;6518;50.930;5.344;2022-07-06T01:30:34;3.55;;;3.25;;
12900;SDS011;6518;50.930;5.344;2022-07-06T01:33:01;4.80;;;3.08;;
12900;SDS011;6518;50.930;5.344;2022-07-06T01:35:28;7.80;;;3.15;;
12900;SDS011;6518;50.930;5.344;2022-07-06T01:37:59;5.90;;;3.13;;
12900;SDS011;6518;50.930;5.344;2022-07-06T01:40:26;4.32;;;2.80;;
12900;SDS011;6518;50.930;5.344;2022-07-06T01:42:53;6.10;;;2.63;;
12900;SDS011;6518;50.930;5.344;2022-07-06T01:45:20;8.57;;;3.33;;
12900;SDS011;6518;50.930;5.344;2022-07-06T01:47:46;8.05;;;2.90;;
12900;SDS011;6518;50.930;5.344;2022-07-06T01:50:13;4.47;;;2.90;;
12900;SDS011;6518;50.930;5.344;2022-07-06T01:52:40;4.90;;;3.17;;
12900;SDS011;6518;50.930;5.344;2022-07-06T01:55:09;4.22;;;2.75;;
12900;SDS011;6518;50.930;5.344;2022-07-06T01:57:36;3.80;;;2.93;;
12900;SDS011;6518;50.930;5.344;2022-07-06T02:00:04;5.87;;;3.40;;
12900;SDS011;6518;50.930;5.344;2022-07-06T02:02:32;6.93;;;3.27;;
12900;SDS011;6518;50.930;5.344;2022-07-06T02:04:59;3.57;;;3.07;;
12900;SDS011;6518;50.930;5.344;2022-07-06T02:07:26;5.93;;;3.00;;
12900;SDS011;6518;50.930;5.344;2022-07-06T02:09:53;5.60;;;3.40;;
12900;SDS011;6518;50.930;5.344;2022-07-06T02:12:22;5.68;;;2.95;;
12900;SDS011;6518;50.930;5.344;2022-07-06T02:14:49;5.93;;;3.20;;
12900;SDS011;6518;50.930;5.344;2022-07-06T02:17:16;4.50;;;3.03;;
12900;SDS011;6518;50.930;5.344;2022-07-06T02:19:43;6.07;;;3.60;;
12900;SDS011;6518;50.930;5.344;2022-07-06T02:22:09;4.27;;;3.20;;
12900;SDS011;6518;50.930;5.344;2022-07-06T02:24:36;5.50;;;3.03;;
12900;SDS011;6518;50.930;5.344;2022-07-06T02:27:03;5.13;;;3.33;;
12900;SDS011;6518;50.930;5.344;2022-07-06T02:29:32;5.40;;;3.00;;
12900;SDS011;6518;50.930;5.344;2022-07-06T02:31:59;4.10;;;3.13;;
12900;SDS011;6518;50.930;5.344;2022-07-06T02:34:26;4.30;;;2.90;;
12900;SDS011;6518;50.930;5.344;2022-07-06T02:36:53;5.60;;;3.10;;
12900;SDS011;6518;50.930;5.344;2022-07-06T02:39:20;3.93;;;2.97;;
12900;SDS011;6518;50.930;5.344;2022-07-06T02:41:47;6.07;;;3.37;;
12900;SDS011;6518;50.930;5.344;2022-07-06T02:44:14;5.03;;;3.13;;
12900;SDS011;6518;50.930;5.344;2022-07-06T02:46:43;6.23;;;3.07;;
12900;SDS011;6518;50.930;5.344;2022-07-06T02:49:09;6.50;;;3.27;;
12900;SDS011;6518;50.930;5.344;2022-07-06T02:51:36;4.70;;;3.10;;
12900;SDS011;6518;50.930;5.344;2022-07-06T02:54:03;6.27;;;3.23;;
12900;SDS011;6518;50.930;5.344;2022-07-06T02:56:30;5.43;;;2.97;;
12900;SDS011;6518;50.930;5.344;2022-07-06T02:58:57;5.30;;;2.97;;
12900;SDS011;6518;50.930;5.344;2022-07-06T03:01:24;6.33;;;3.40;;
12900;SDS011;6518;50.930;5.344;2022-07-06T03:03:52;3.67;;;3.03;;
12900;SDS011;6518;50.930;5.344;2022-07-06T03:06:19;5.40;;;3.13;;
12900;SDS011;6518;50.930;5.344;2022-07-06T03:08:46;4.63;;;3.13;;
12900;SDS011;6518;50.930;5.344;2022-07-06T03:11:13;4.60;;;3.07;;
12900;SDS011;6518;50.930;5.344;2022-07-06T03:13:40;4.83;;;3.03;;
12900;SDS011;6518;50.930;5.344;2022-07-06T03:16:07;4.40;;;2.80;;
12900;SDS011;6518;50.930;5.344;2022-07-06T03:18:34;5.93;;;3.07;;
12900;SDS011;6518;50.930;5.344;2022-07-06T03:21:02;4.63;;;2.80;;
12900;SDS011;6518;50.930;5.344;2022-07-06T03:23:30;4.87;;;3.13;;
12900;SDS011;6518;50.930;5.344;2022-07-06T03:25:57;5.40;;;3.20;;
12900;SDS011;6518;50.930;5.344;2022-07-06T03:28:24;4.37;;;3.37;;
12900;SDS011;6518;50.930;5.344;2022-07-06T03:30:51;7.00;;;3.67;;
12900;SDS011;6518;50.930;5.344;2022-07-06T03:33:18;9.37;;;3.57;;
12900;SDS011;6518;50.930;5.344;2022-07-06T03:35:46;6.07;;;3.33;;
12900;SDS011;6518;50.930;5.344;2022-07-06T03:38:14;6.90;;;3.27;;
12900;SDS011;6518;50.930;5.344;2022-07-06T03:40:41;7.00;;;3.77;;
12900;SDS011;6518;50.930;5.344;2022-07-06T03:43:10;6.53;;;3.70;;
12900;SDS011;6518;50.930;5.344;2022-07-06T03:45:38;5.90;;;3.43;;
12900;SDS011;6518;50.930;5.344;2022-07-06T03:48:05;6.20;;;3.60;;
12900;SDS011;6518;50.930;5.344;2022-07-06T03:50:32;6.30;;;3.40;;
12900;SDS011;6518;50.930;5.344;2022-07-06T03:52:59;5.80;;;3.37;;
12900;SDS011;6518;50.930;5.344;2022-07-06T03:55:28;8.03;;;3.70;;
12900;SDS011;6518;50.930;5.344;2022-07-06T03:57:55;5.83;;;3.30;;
12900;SDS011;6518;50.930;5.344;2022-07-06T04:00:22;5.47;;;3.50;;
12900;SDS011;6518;50.930;5.344;2022-07-06T04:02:49;6.13;;;3.60;;
12900;SDS011;6518;50.930;5.344;2022-07-06T04:05:16;8.27;;;3.37;;
12900;SDS011;6518;50.930;5.344;2022-07-06T04:07:46;5.70;;;3.50;;
12900;SDS011;6518;50.930;5.344;2022-07-06T04:10:13;7.03;;;3.67;;
12900;SDS011;6518;50.930;5.344;2022-07-06T04:12:41;5.77;;;3.40;;
12900;SDS011;6518;50.930;5.344;2022-07-06T04:15:09;6.47;;;3.47;;
12900;SDS011;6518;50.930;5.344;2022-07-06T04:17:37;4.87;;;3.30;;
12900;SDS011;6518;50.930;5.344;2022-07-06T04:20:19;4.67;;;3.43;;
12900;SDS011;6518;50.930;5.344;2022-07-06T04:22:47;5.70;;;3.50;;
12900;SDS011;6518;50.930;5.344;2022-07-06T04:25:14;6.40;;;3.73;;
12900;SDS011;6518;50.930;5.344;2022-07-06T04:27:42;5.53;;;3.60;;
12900;SDS011;6518;50.930;5.344;2022-07-06T04:30:09;4.65;;;3.40;;
12900;SDS011;6518;50.930;5.344;2022-07-06T04:32:37;6.30;;;3.60;;
12900;SDS011;6518;50.930;5.344;2022-07-06T04:35:04;4.93;;;3.33;;
12900;SDS011;6518;50.930;5.344;2022-07-06T04:37:32;6.78;;;3.42;;
12900;SDS011;6518;50.930;5.344;2022-07-06T04:39:59;5.90;;;3.60;;
12900;SDS011;6518;50.930;5.344;2022-07-06T04:42:25;4.75;;;3.75;;
12900;SDS011;6518;50.930;5.344;2022-07-06T04:44:54;6.82;;;4.38;;
12900;SDS011;6518;50.930;5.344;2022-07-06T04:47:20;7.03;;;4.07;;
12900;SDS011;6518;50.930;5.344;2022-07-06T04:49:47;6.30;;;3.92;;
12900;SDS011;6518;50.930;5.344;2022-07-06T04:52:14;5.60;;;4.20;;
12900;SDS011;6518;50.930;5.344;2022-07-06T04:54:41;7.95;;;4.00;;
12900;SDS011;6518;50.930;5.344;2022-07-06T04:57:08;8.52;;;4.30;;
12900;SDS011;6518;50.930;5.344;2022-07-06T04:59:35;7.40;;;5.00;;
12900;SDS011;6518;50.930;5.344;2022-07-06T05:02:05;7.38;;;4.65;;
12900;SDS011;6518;50.930;5.344;2022-07-06T05:04:32;8.45;;;4.30;;
12900;SDS011;6518;50.930;5.344;2022-07-06T05:06:59;8.65;;;4.88;;
12900;SDS011;6518;50.930;5.344;2022-07-06T05:09:26;7.78;;;3.75;;
12900;SDS011;6518;50.930;5.344;2022-07-06T05:11:52;8.07;;;4.18;;
12900;SDS011;6518;50.930;5.344;2022-07-06T05:14:19;8.07;;;5.10;;
12900;SDS011;6518;50.930;5.344;2022-07-06T05:16:46;9.98;;;4.90;;
12900;SDS011;6518;50.930;5.344;2022-07-06T05:19:15;6.68;;;4.85;;
12900;SDS011;6518;50.930;5.344;2022-07-06T05:21:42;8.20;;;5.55;;
12900;SDS011;6518;50.930;5.344;2022-07-06T05:24:09;9.15;;;5.28;;
12900;SDS011;6518;50.930;5.344;2022-07-06T05:26:35;5.78;;;4.43;;
12900;SDS011;6518;50.930;5.344;2022-07-06T05:29:02;12.05;;;5.07;;
12900;SDS011;6518;50.930;5.344;2022-07-06T05:31:29;8.50;;;5.47;;
12900;SDS011;6518;50.930;5.344;2022-07-06T05:33:56;9.07;;;4.80;;
12900;SDS011;6518;50.930;5.344;2022-07-06T05:36:24;7.97;;;4.68;;
12900;SDS011;6518;50.930;5.344;2022-07-06T05:38:51;8.40;;;4.43;;
12900;SDS011;6518;50.930;5.344;2022-07-06T05:41:18;7.35;;;4.93;;
12900;SDS011;6518;50.930;5.344;2022-07-06T05:43:45;5.05;;;4.28;;
12900;SDS011;6518;50.930;5.344;2022-07-06T05:46:12;9.45;;;5.38;;
12900;SDS011;6518;50.930;5.344;2022-07-06T05:48:39;10.43;;;4.35;;
12900;SDS011;6518;50.930;5.344;2022-07-06T05:51:24;8.07;;;4.32;;
12900;SDS011;6518;50.930;5.344;2022-07-06T05:53:51;3.92;;;2.92;;
12900;SDS011;6518;50.930;5.344;2022-07-06T05:56:18;5.25;;;3.58;;
12900;SDS011;6518;50.930;5.344;2022-07-06T05:58:45;9.98;;;3.83;;
12900;SDS011;6518;50.930;5.344;2022-07-06T06:01:12;7.00;;;3.40;;
12900;SDS011;6518;50.930;5.344;2022-07-06T06:03:39;6.25;;;3.03;;
12900;SDS011;6518;50.930;5.344;2022-07-06T06:06:06;6.03;;;3.10;;
12900;SDS011;6518;50.930;5.344;2022-07-06T06:08:34;5.22;;;2.67;;
12900;SDS011;6518;50.930;5.344;2022-07-06T06:11:01;5.28;;;2.35;;
12900;SDS011;6518;50.930;5.344;2022-07-06T06:13:28;8.18;;;2.80;;
12900;SDS011;6518;50.930;5.344;2022-07-06T06:15:55;5.70;;;2.78;;
12900;SDS011;6518;50.930;5.344;2022-07-06T06:18:22;7.72;;;3.05;;
12900;SDS011;6518;50.930;5.344;2022-07-06T06:20:49;4.97;;;2.33;;
12900;SDS011;6518;50.930;5.344;2022-07-06T06:23:16;8.13;;;2.80;;
12900;SDS011;6518;50.930;5.344;2022-07-06T06:25:45;7.07;;;2.25;;
12900;SDS011;6518;50.930;5.344;2022-07-06T06:28:12;4.60;;;2.03;;
12900;SDS011;6518;50.930;5.344;2022-07-06T06:30:39;3.28;;;1.77;;
12900;SDS011;6518;50.930;5.344;2022-07-06T06:33:07;4.13;;;1.88;;
12900;SDS011;6518;50.930;5.344;2022-07-06T06:35:35;9.57;;;2.65;;
12900;SDS011;6518;50.930;5.344;2022-07-06T06:38:02;8.77;;;2.15;;
12900;SDS011;6518;50.930;5.344;2022-07-06T06:40:29;7.25;;;2.40;;
12900;SDS011;6518;50.930;5.344;2022-07-06T06:42:57;5.38;;;2.22;;
12900;SDS011;6518;50.930;5.344;2022-07-06T06:45:24;9.00;;;2.58;;
12900;SDS011;6518;50.930;5.344;2022-07-06T06:47:51;4.07;;;2.33;;
12900;SDS011;6518;50.930;5.344;2022-07-06T06:50:18;5.47;;;2.15;;
12900;SDS011;6518;50.930;5.344;2022-07-06T06:52:46;4.82;;;2.00;;
12900;SDS011;6518;50.930;5.344;2022-07-06T06:55:13;2.75;;;1.60;;
12900;SDS011;6518;50.930;5.344;2022-07-06T06:57:40;27.00;;;4.47;;
12900;SDS011;6518;50.930;5.344;2022-07-06T07:00:09;7.68;;;2.20;;
12900;SDS011;6518;50.930;5.344;2022-07-06T07:02:37;5.13;;;2.13;;
12900;SDS011;6518;50.930;5.344;2022-07-06T07:05:05;2.85;;;2.10;;
12900;SDS011;6518;50.930;5.344;2022-07-06T07:07:32;4.93;;;2.20;;
12900;SDS011;6518;50.930;5.344;2022-07-06T07:10:00;3.20;;;1.83;;
12900;SDS011;6518;50.930;5.344;2022-07-06T07:12:28;33.05;;;6.03;;
12900;SDS011;6518;50.930;5.344;2022-07-06T07:14:55;6.03;;;2.35;;
12900;SDS011;6518;50.930;5.344;2022-07-06T07:17:23;11.90;;;2.85;;
12900;SDS011;6518;50.930;5.344;2022-07-06T07:19:50;7.30;;;2.40;;
12900;SDS011;6518;50.930;5.344;2022-07-06T07:22:17;9.20;;;2.30;;
12900;SDS011;6518;50.930;5.344;2022-07-06T07:24:43;4.90;;;2.03;;
12900;SDS011;6518;50.930;5.344;2022-07-06T07:27:10;3.30;;;1.77;;
12900;SDS011;6518;50.930;5.344;2022-07-06T07:29:37;3.78;;;1.80;;
12900;SDS011;6518;50.930;5.344;2022-07-06T07:32:04;4.07;;;1.83;;
12900;SDS011;6518;50.930;5.344;2022-07-06T07:34:33;4.90;;;1.75;;
12900;SDS011;6518;50.930;5.344;2022-07-06T07:37:00;6.15;;;1.63;;
12900;SDS011;6518;50.930;5.344;2022-07-06T07:39:27;2.90;;;1.67;;
12900;SDS011;6518;50.930;5.344;2022-07-06T07:41:53;2.83;;;2.00;;
12900;SDS011;6518;50.930;5.344;2022-07-06T07:44:20;5.30;;;2.53;;
12900;SDS011;6518;50.930;5.344;2022-07-06T07:46:47;4.57;;;2.05;;
12900;SDS011;6518;50.930;5.344;2022-07-06T07:49:14;11.02;;;1.95;;
12900;SDS011;6518;50.930;5.344;2022-07-06T07:51:42;2.35;;;1.33;;
12900;SDS011;6518;50.930;5.344;2022-07-06T07:54:11;3.50;;;1.25;;
12900;SDS011;6518;50.930;5.344;2022-07-06T07:56:38;4.18;;;1.40;;
12900;SDS011;6518;50.930;5.344;2022-07-06T07:59:05;5.10;;;1.60;;
12900;SDS011;6518;50.930;5.344;2022-07-06T08:01:32;3.08;;;1.40;;
12900;SDS011;6518;50.930;5.344;2022-07-06T08:03:59;4.05;;;1.50;;
12900;SDS011;6518;50.930;5.344;2022-07-06T08:06:26;8.30;;;1.30;;
12900;SDS011;6518;50.930;5.344;2022-07-06T08:08:54;2.88;;;1.10;;
12900;SDS011;6518;50.930;5.344;2022-07-06T08:11:21;4.05;;;1.35;;
12900;SDS011;6518;50.930;5.344;2022-07-06T08:13:48;3.92;;;1.23;;
12900;SDS011;6518;50.930;5.344;2022-07-06T08:16:15;4.30;;;1.20;;
12900;SDS011;6518;50.930;5.344;2022-07-06T08:18:42;5.10;;;1.20;;
12900;SDS011;6518;50.930;5.344;2022-07-06T08:21:09;4.18;;;1.38;;
12900;SDS011;6518;50.930;5.344;2022-07-06T08:23:36;2.28;;;1.27;;
12900;SDS011;6518;50.930;5.344;2022-07-06T08:26:05;2.08;;;1.00;;
12900;SDS011;6518;50.930;5.344;2022-07-06T08:28:32;6.13;;;1.10;;
12900;SDS011;6518;50.930;5.344;2022-07-06T08:30:59;2.63;;;1.05;;
12900;SDS011;6518;50.930;5.344;2022-07-06T08:33:26;3.50;;;0.95;;
12900;SDS011;6518;50.930;5.344;2022-07-06T08:35:53;1.60;;;1.10;;
12900;SDS011;6518;50.930;5.344;2022-07-06T08:38:20;2.33;;;1.10;;
12900;SDS011;6518;50.930;5.344;2022-07-06T08:40:47;5.03;;;1.27;;
12900;SDS011;6518;50.930;5.344;2022-07-06T08:43:17;3.92;;;1.30;;
12900;SDS011;6518;50.930;5.344;2022-07-06T08:45:44;7.13;;;1.45;;
12900;SDS011;6518;50.930;5.344;2022-07-06T08:48:12;2.30;;;1.13;;
12900;SDS011;6518;50.930;5.344;2022-07-06T08:50:39;3.92;;;1.27;;
12900;SDS011;6518;50.930;5.344;2022-07-06T08:53:06;3.03;;;1.10;;
12900;SDS011;6518;50.930;5.344;2022-07-06T08:55:33;3.92;;;1.00;;
12900;SDS011;6518;50.930;5.344;2022-07-06T08:58:01;8.02;;;1.90;;
12900;SDS011;6518;50.930;5.344;2022-07-06T09:00:31;1.70;;;1.17;;
12900;SDS011;6518;50.930;5.344;2022-07-06T09:02:58;3.55;;;0.90;;
12900;SDS011;6518;50.930;5.344;2022-07-06T09:05:26;29.83;;;4.45;;
12900;SDS011;6518;50.930;5.344;2022-07-06T09:07:55;16.38;;;3.17;;
12900;SDS011;6518;50.930;5.344;2022-07-06T09:10:23;7.30;;;1.50;;
12900;SDS011;6518;50.930;5.344;2022-07-06T09:12:51;8.52;;;2.08;;
12900;SDS011;6518;50.930;5.344;2022-07-06T09:15:18;5.18;;;1.30;;
12900;SDS011;6518;50.930;5.344;2022-07-06T09:17:52;2.88;;;1.02;;
12900;SDS011;6518;50.930;5.344;2022-07-06T09:20:23;4.50;;;0.90;;
12900;SDS011;6518;50.930;5.344;2022-07-06T09:22:53;5.68;;;1.38;;
12900;SDS011;6518;50.930;5.344;2022-07-06T09:25:24;7.47;;;1.95;;
12900;SDS011;6518;50.930;5.344;2022-07-06T09:27:52;22.15;;;2.70;;
12900;SDS011;6518;50.930;5.344;2022-07-06T09:30:20;2.33;;;1.08;;
12900;SDS011;6518;50.930;5.344;2022-07-06T09:32:50;4.38;;;1.17;;
12900;SDS011;6518;50.930;5.344;2022-07-06T09:35:19;2.25;;;1.30;;
12900;SDS011;6518;50.930;5.344;2022-07-06T09:37:49;5.07;;;1.08;;
12900;SDS011;6518;50.930;5.344;2022-07-06T09:40:26;5.68;;;1.55;;
12900;SDS011;6518;50.930;5.344;2022-07-06T09:43:06;10.95;;;2.08;;
12900;SDS011;6518;50.930;5.344;2022-07-06T09:45:34;7.65;;;1.63;;
12900;SDS011;6518;50.930;5.344;2022-07-06T09:48:07;8.43;;;1.30;;
12900;SDS011;6518;50.930;5.344;2022-07-06T09:50:40;3.25;;;1.38;;
12900;SDS011;6518;50.930;5.344;2022-07-06T09:53:09;4.00;;;1.38;;
12900;SDS011;6518;50.930;5.344;2022-07-06T09:55:36;5.03;;;1.58;;
12900;SDS011;6518;50.930;5.344;2022-07-06T09:58:03;6.55;;;1.83;;
12900;SDS011;6518;50.930;5.344;2022-07-06T10:00:30;4.40;;;1.50;;
12900;SDS011;6518;50.930;5.344;2022-07-06T10:02:57;6.15;;;1.40;;
12900;SDS011;6518;50.930;5.344;2022-07-06T10:05:27;5.03;;;1.40;;
12900;SDS011;6518;50.930;5.344;2022-07-06T10:07:56;3.67;;;1.40;;
12900;SDS011;6518;50.930;5.344;2022-07-06T10:10:25;3.42;;;1.48;;
12900;SDS011;6518;50.930;5.344;2022-07-06T10:12:54;3.03;;;1.40;;
12900;SDS011;6518;50.930;5.344;2022-07-06T10:15:22;7.32;;;1.80;;
12900;SDS011;6518;50.930;5.344;2022-07-06T10:17:50;4.78;;;1.60;;
12900;SDS011;6518;50.930;5.344;2022-07-06T10:20:18;3.33;;;1.23;;
12900;SDS011;6518;50.930;5.344;2022-07-06T10:22:48;3.03;;;1.55;;
12900;SDS011;6518;50.930;5.344;2022-07-06T10:25:18;6.50;;;1.70;;
12900;SDS011;6518;50.930;5.344;2022-07-06T10:27:46;3.63;;;1.58;;
12900;SDS011;6518;50.930;5.344;2022-07-06T10:30:15;4.22;;;1.65;;
12900;SDS011;6518;50.930;5.344;2022-07-06T10:32:44;4.15;;;1.35;;
12900;SDS011;6518;50.930;5.344;2022-07-06T10:35:13;5.22;;;1.50;;
12900;SDS011;6518;50.930;5.344;2022-07-06T10:37:41;4.90;;;1.52;;
12900;SDS011;6518;50.930;5.344;2022-07-06T10:40:10;3.90;;;1.60;;
12900;SDS011;6518;50.930;5.344;2022-07-06T10:42:57;4.70;;;1.67;;
12900;SDS011;6518;50.930;5.344;2022-07-06T10:48:17;3.80;;;1.50;;
12900;SDS011;6518;50.930;5.344;2022-07-06T10:50:47;4.05;;;1.80;;
12900;SDS011;6518;50.930;5.344;2022-07-06T10:53:16;8.27;;;1.63;;
12900;SDS011;6518;50.930;5.344;2022-07-06T10:55:49;3.08;;;1.45;;
12900;SDS011;6518;50.930;5.344;2022-07-06T11:01:02;7.40;;;1.95;;
12900;SDS011;6518;50.930;5.344;2022-07-06T11:03:40;3.47;;;1.70;;
12900;SDS011;6518;50.930;5.344;2022-07-06T11:06:10;3.80;;;2.05;;
12900;SDS011;6518;50.930;5.344;2022-07-06T11:08:45;3.92;;;1.90;;
12900;SDS011;6518;50.930;5.344;2022-07-06T11:11:18;3.22;;;1.90;;
12900;SDS011;6518;50.930;5.344;2022-07-06T11:13:54;5.03;;;1.92;;
12900;SDS011;6518;50.930;5.344;2022-07-06T11:16:23;4.75;;;1.70;;
12900;SDS011;6518;50.930;5.344;2022-07-06T11:19:02;2.20;;;1.48;;
12900;SDS011;6518;50.930;5.344;2022-07-06T11:21:32;3.60;;;1.48;;
12900;SDS011;6518;50.930;5.344;2022-07-06T11:24:01;6.72;;;2.10;;
12900;SDS011;6518;50.930;5.344;2022-07-06T11:26:31;4.57;;;1.55;;
12900;SDS011;6518;50.930;5.344;2022-07-06T11:29:02;8.55;;;1.80;;
12900;SDS011;6518;50.930;5.344;2022-07-06T11:31:30;2.47;;;1.33;;
12900;SDS011;6518;50.930;5.344;2022-07-06T11:33:59;3.53;;;1.50;;
12900;SDS011;6518;50.930;5.344;2022-07-06T11:36:26;5.35;;;1.83;;
12900;SDS011;6518;50.930;5.344;2022-07-06T11:38:53;2.83;;;1.45;;
12900;SDS011;6518;50.930;5.344;2022-07-06T11:41:20;15.40;;;2.53;;
12900;SDS011;6518;50.930;5.344;2022-07-06T11:43:48;6.85;;;2.10;;
12900;SDS011;6518;50.930;5.344;2022-07-06T11:46:26;7.47;;;1.98;;
12900;SDS011;6518;50.930;5.344;2022-07-06T11:48:54;5.32;;;2.15;;
12900;SDS011;6518;50.930;5.344;2022-07-06T11:51:23;9.38;;;2.78;;
12900;SDS011;6518;50.930;5.344;2022-07-06T11:53:51;14.50;;;2.10;;
12900;SDS011;6518;50.930;5.344;2022-07-06T11:56:19;7.88;;;1.77;;
12900;SDS011;6518;50.930;5.344;2022-07-06T11:58:52;3.90;;;1.40;;
12900;SDS011;6518;50.930;5.344;2022-07-06T12:01:20;5.68;;;1.83;;
12900;SDS011;6518;50.930;5.344;2022-07-06T12:03:48;4.60;;;1.80;;
12900;SDS011;6518;50.930;5.344;2022-07-06T12:06:17;7.15;;;2.03;;
12900;SDS011;6518;50.930;5.344;2022-07-06T12:08:45;7.70;;;1.80;;
12900;SDS011;6518;50.930;5.344;2022-07-06T12:11:18;15.25;;;2.83;;
12900;SDS011;6518;50.930;5.344;2022-07-06T12:13:46;5.28;;;1.80;;
12900;SDS011;6518;50.930;5.344;2022-07-06T12:16:15;2.42;;;1.50;;
12900;SDS011;6518;50.930;5.344;2022-07-06T12:18:43;4.45;;;1.80;;
12900;SDS011;6518;50.930;5.344;2022-07-06T12:21:13;5.57;;;2.25;;
12900;SDS011;6518;50.930;5.344;2022-07-06T12:23:42;5.85;;;1.67;;
12900;SDS011;6518;50.930;5.344;2022-07-06T12:26:11;3.45;;;1.70;;
12900;SDS011;6518;50.930;5.344;2022-07-06T12:28:39;5.22;;;1.73;;
12900;SDS011;6518;50.930;5.344;2022-07-06T12:31:06;9.65;;;2.05;;
12900;SDS011;6518;50.930;5.344;2022-07-06T12:33:35;3.78;;;1.63;;
12900;SDS011;6518;50.930;5.344;2022-07-06T12:36:12;8.35;;;1.85;;
12900;SDS011;6518;50.930;5.344;2022-07-06T12:38:46;4.75;;;1.80;;
12900;SDS011;6518;50.930;5.344;2022-07-06T12:41:26;7.15;;;1.98;;
12900;SDS011;6518;50.930;5.344;2022-07-06T12:44:01;5.90;;;2.10;;
12900;SDS011;6518;50.930;5.344;2022-07-06T12:46:33;4.82;;;1.70;;
12900;SDS011;6518;50.930;5.344;2022-07-06T12:49:03;8.40;;;4.10;;
12900;SDS011;6518;50.930;5.344;2022-07-06T12:51:53;8.30;;;3.70;;
12900;SDS011;6518;50.930;5.344;2022-07-06T12:54:22;7.63;;;3.75;;
12900;SDS011;6518;50.930;5.344;2022-07-06T12:59:38;4.50;;;1.63;;
12900;SDS011;6518;50.930;5.344;2022-07-06T13:02:08;3.13;;;1.65;;
12900;SDS011;6518;50.930;5.344;2022-07-06T13:04:37;8.20;;;1.90;;
12900;SDS011;6518;50.930;5.344;2022-07-06T13:07:04;4.30;;;1.80;;
12900;SDS011;6518;50.930;5.344;2022-07-06T13:09:31;3.60;;;2.17;;
12900;SDS011;6518;50.930;5.344;2022-07-06T13:11:58;7.18;;;2.08;;
12900;SDS011;6518;50.930;5.344;2022-07-06T13:14:25;5.10;;;2.10;;
12900;SDS011;6518;50.930;5.344;2022-07-06T13:16:52;6.07;;;2.28;;
12900;SDS011;6518;50.930;5.344;2022-07-06T13:19:20;7.25;;;2.10;;
12900;SDS011;6518;50.930;5.344;2022-07-06T13:21:48;5.38;;;2.10;;
12900;SDS011;6518;50.930;5.344;2022-07-06T13:24:15;7.72;;;2.30;;
12900;SDS011;6518;50.930;5.344;2022-07-06T13:26:42;4.55;;;2.20;;
12900;SDS011;6518;50.930;5.344;2022-07-06T13:29:09;10.52;;;2.90;;
12900;SDS011;6518;50.930;5.344;2022-07-06T13:31:37;10.80;;;2.38;;
12900;SDS011;6518;50.930;5.344;2022-07-06T13:34:05;4.28;;;2.00;;
12900;SDS011;6518;50.930;5.344;2022-07-06T13:36:32;3.28;;;1.95;;
12900;SDS011;6518;50.930;5.344;2022-07-06T13:39:01;7.10;;;2.30;;
12900;SDS011;6518;50.930;5.344;2022-07-06T13:41:29;5.47;;;1.80;;
12900;SDS011;6518;50.930;5.344;2022-07-06T13:43:56;3.50;;;2.22;;
12900;SDS011;6518;50.930;5.344;2022-07-06T13:46:23;8.30;;;2.90;;
12900;SDS011;6518;50.930;5.344;2022-07-06T13:48:51;4.85;;;3.20;;
12900;SDS011;6518;50.930;5.344;2022-07-06T13:51:19;5.50;;;2.13;;
12900;SDS011;6518;50.930;5.344;2022-07-06T13:53:46;5.20;;;2.22;;
12900;SDS011;6518;50.930;5.344;2022-07-06T13:56:14;3.25;;;1.75;;
12900;SDS011;6518;50.930;5.344;2022-07-06T13:58:42;3.88;;;1.88;;
12900;SDS011;6518;50.930;5.344;2022-07-06T14:01:10;3.63;;;1.80;;
12900;SDS011;6518;50.930;5.344;2022-07-06T14:03:37;5.30;;;2.00;;
12900;SDS011;6518;50.930;5.344;2022-07-06T14:06:04;5.50;;;2.20;;
12900;SDS011;6518;50.930;5.344;2022-07-06T14:08:33;7.35;;;2.03;;
12900;SDS011;6518;50.930;5.344;2022-07-06T14:11:00;4.30;;;1.67;;
12900;SDS011;6518;50.930;5.344;2022-07-06T14:13:29;4.88;;;1.83;;
12900;SDS011;6518;50.930;5.344;2022-07-06T14:15:56;5.32;;;2.10;;
12900;SDS011;6518;50.930;5.344;2022-07-06T14:18:23;4.05;;;1.88;;
12900;SDS011;6518;50.930;5.344;2022-07-06T14:20:50;4.20;;;2.10;;
12900;SDS011;6518;50.930;5.344;2022-07-06T14:23:18;5.05;;;1.80;;
12900;SDS011;6518;50.930;5.344;2022-07-06T14:25:46;8.00;;;2.97;;
12900;SDS011;6518;50.930;5.344;2022-07-06T14:28:13;6.97;;;2.30;;
12900;SDS011;6518;50.930;5.344;2022-07-06T14:30:43;4.40;;;2.08;;
12900;SDS011;6518;50.930;5.344;2022-07-06T14:33:11;3.55;;;1.60;;
12900;SDS011;6518;50.930;5.344;2022-07-06T14:35:40;6.82;;;1.80;;
12900;SDS011;6518;50.930;5.344;2022-07-06T14:38:09;5.47;;;1.92;;
12900;SDS011;6518;50.930;5.344;2022-07-06T14:40:36;4.25;;;1.77;;
12900;SDS011;6518;50.930;5.344;2022-07-06T14:43:03;4.15;;;1.50;;
12900;SDS011;6518;50.930;5.344;2022-07-06T14:45:30;9.00;;;2.30;;
12900;SDS011;6518;50.930;5.344;2022-07-06T14:47:59;6.35;;;2.28;;
12900;SDS011;6518;50.930;5.344;2022-07-06T14:50:26;9.02;;;1.95;;
12900;SDS011;6518;50.930;5.344;2022-07-06T14:52:54;5.40;;;2.10;;
12900;SDS011;6518;50.930;5.344;2022-07-06T14:55:21;6.28;;;1.70;;
12900;SDS011;6518;50.930;5.344;2022-07-06T14:57:48;11.07;;;2.83;;
12900;SDS011;6518;50.930;5.344;2022-07-06T15:00:15;5.82;;;3.42;;
12900;SDS011;6518;50.930;5.344;2022-07-06T15:02:43;6.38;;;4.45;;
12900;SDS011;6518;50.930;5.344;2022-07-06T15:05:11;5.40;;;2.20;;
12900;SDS011;6518;50.930;5.344;2022-07-06T15:07:39;11.18;;;2.28;;
12900;SDS011;6518;50.930;5.344;2022-07-06T15:10:07;4.25;;;2.38;;
12900;SDS011;6518;50.930;5.344;2022-07-06T15:12:35;5.38;;;1.95;;
12900;SDS011;6518;50.930;5.344;2022-07-06T15:15:02;6.90;;;2.00;;